logo
Rechercher aéroport 
image banner adimage banner adimage banner ad
image banner ad

FLKS - Kasama

Situé à Kasama, Zambia

ICAO - FLKS, IATA - KAA

Données fournies par Airmate  

Information générale

Coordonnées: S10°13'7" E31°8'7"
Élévation : 4514 feet MSL.
 
Voir autres Aéroports à Northern Province

Données opérationnelles

Special qualification required
Heure actuelle UTC:
Heure actuelle locale:
Météo
TAF: TAF FLKS 251000Z 2512/2618 11010KT CAVOK BECMG 2520/2522 14005KT BECMG 2606/2608 11010KT BECMG 2608/2610 10010G15KT
Voir NOTAMs / SUP AIP / TFR affectant cet aéroport [VIEW]
Fréquences de communication: [VIEW]

Pistes:

Identifiant RWYQFULongueur (ft)Largeur (ft)SurfaceLDA (ft)
13128°984398Gravel
31308°984398Gravel

Coordonnées de l'aéroport

Adresse: Kasama Zambia

Vue satellite de FLKS